Time;durP1;ratioP1;P1;durP2;ratioP2;P2;SDS_P1;SDS_P2;PMS_P1;PMS_P2;Temp;Humidity;BMP_temperature;BMP_pressure;BME280_temperature;BME280_humidity;BME280_pressure;Samples;Min_cycle;Max_cycle;Signal;HPM_P1;HPM_P2
2022/10/17 00:00:34;;;;;;;1.67;1.57;;;19.10;71.60;20.30;100829.00;;;;4970818;28;20769;-47
2022/10/17 00:03:00;;;;;;;1.53;1.43;;;19.10;71.60;20.30;100916.00;;;;4969663;28;20227;-47
2022/10/17 00:05:26;;;;;;;1.40;1.40;;;19.20;71.60;20.30;100914.00;;;;4971144;28;20228;-49
2022/10/17 00:07:52;;;;;;;1.40;1.30;;;19.10;71.50;20.30;100909.00;;;;4970870;28;20271;-48
2022/10/17 00:10:18;;;;;;;1.53;1.50;;;19.10;71.60;20.30;100912.00;;;;4970935;28;20705;-47
2022/10/17 00:12:44;;;;;;;1.67;1.57;;;19.10;71.60;20.30;100922.00;;;;4970915;28;20552;-48
2022/10/17 00:15:13;;;;;;;1.60;1.50;;;19.10;71.50;20.30;100910.00;;;;4970607;28;20276;-47
2022/10/17 00:17:38;;;;;;;1.37;1.27;;;19.10;71.50;20.30;100905.00;;;;4953767;28;20244;-47
2022/10/17 00:20:05;;;;;;;1.60;1.50;;;19.10;71.50;20.30;100914.00;;;;4971001;28;20216;-48
2022/10/17 00:22:31;;;;;;;1.67;1.57;;;19.10;71.50;20.30;100904.00;;;;4971282;28;20185;-47
2022/10/17 00:24:56;;;;;;;1.30;1.30;;;19.10;71.50;20.30;100905.00;;;;4970592;28;20173;-48
2022/10/17 00:27:22;;;;;;;1.40;1.40;;;19.10;71.60;20.30;100923.00;;;;4970964;28;20193;-48
2022/10/17 00:29:51;;;;;;;1.70;1.60;;;19.10;71.60;20.20;100917.00;;;;4971960;28;20558;-48
2022/10/17 00:32:17;;;;;;;1.60;1.50;;;19.10;71.50;20.20;100927.00;;;;4971106;28;20199;-48
2022/10/17 00:34:43;;;;;;;1.47;1.37;;;19.00;71.40;20.20;100927.00;;;;4969968;28;20642;-47
2022/10/17 00:37:09;;;;;;;1.70;1.60;;;19.00;71.50;20.20;100922.00;;;;4970404;28;20194;-49
2022/10/17 00:39:34;;;;;;;1.30;1.30;;;19.10;71.70;20.20;100920.00;;;;4970619;28;20204;-47
2022/10/17 00:42:00;;;;;;;1.70;1.60;;;19.10;71.70;20.20;100915.00;;;;4971024;28;20196;-47
2022/10/17 00:44:29;;;;;;;1.70;1.60;;;19.10;71.60;20.20;100922.00;;;;4970665;28;20612;-47
2022/10/17 00:47:03;;;;;;;1.47;1.40;;;19.10;71.70;20.20;100923.00;;;;4970801;28;20240;-47
2022/10/17 00:49:31;;;;;;;1.67;1.57;;;19.00;71.50;20.20;100924.00;;;;4954282;28;20248;-46
2022/10/17 00:52:00;;;;;;;1.60;1.50;;;19.10;71.70;20.20;100916.00;;;;4954079;28;20220;-47
2022/10/17 00:54:31;;;;;;;1.30;1.30;;;19.00;71.50;20.20;100930.00;;;;4970176;28;20185;-47
2022/10/17 00:56:57;;;;;;;1.60;1.50;;;19.10;71.70;20.20;100923.00;;;;4969930;28;20658;-47
2022/10/17 00:59:23;;;;;;;1.60;1.50;;;19.10;71.60;20.20;100910.00;;;;4953583;28;20304;-47
2022/10/17 01:02:03;;;;;;;1.80;1.70;;;19.10;71.70;20.20;100907.00;;;;4969317;28;20213;-47
2022/10/17 01:04:28;;;;;;;1.80;1.70;;;19.10;71.60;20.00;100918.00;;;;4970394;28;20172;-47
2022/10/17 01:06:54;;;;;;;1.80;1.70;;;19.10;71.60;20.20;100922.00;;;;4970401;28;20177;-47
2022/10/17 01:09:20;;;;;;;1.70;1.60;;;19.10;71.70;20.20;100912.00;;;;4970357;28;20818;-47
2022/10/17 01:12:01;;;;;;;1.80;1.70;;;19.00;71.50;20.20;100920.00;;;;4968877;28;20177;-47
2022/10/17 01:14:59;;;;;;;1.77;1.67;;;19.10;71.70;20.20;100922.00;;;;4954124;28;20169;-48
2022/10/17 01:17:39;;;;;;;1.80;1.70;;;19.00;71.60;20.20;100918.00;;;;4968718;28;20203;-47
2022/10/17 01:20:58;;;;;;;1.77;1.67;;;19.00;71.70;20.20;100912.00;;;;4968447;28;20291;-47
2022/10/17 01:23:56;;;;;;;1.60;1.50;;;19.00;71.70;20.10;100927.00;;;;4969660;28;20184;-48
2022/10/17 01:26:32;;;;;;;1.70;1.60;;;19.00;71.70;19.90;100929.00;;;;4969182;28;20161;-49
2022/10/17 01:29:20;;;;;;;1.80;1.70;;;19.00;71.70;20.10;100934.00;;;;4968385;28;20275;-48
2022/10/17 01:32:07;;;;;;;1.67;1.57;;;19.00;71.70;20.10;100920.00;;;;4954805;28;20529;-48
2022/10/17 01:35:08;;;;;;;1.80;1.70;;;19.00;72.40;20.10;100937.00;;;;4970041;28;20173;-48
2022/10/17 01:37:45;;;;;;;1.70;1.60;;;19.00;71.70;20.10;100924.00;;;;4968533;28;20215;-48
2022/10/17 01:40:58;;;;;;;1.70;1.60;;;19.00;71.60;20.10;100929.00;;;;4969710;28;20193;-47
2022/10/17 01:44:23;;;;;;;1.70;1.60;;;19.00;71.50;20.10;100917.00;;;;4959467;28;20200;-47
2022/10/17 01:46:49;;;;;;;1.73;1.63;;;19.00;71.60;20.10;100917.00;;;;4947882;28;20287;-48
2022/10/17 01:49:17;;;;;;;1.73;1.63;;;19.00;71.70;20.10;100923.00;;;;4968843;28;20778;-48
2022/10/17 01:52:07;;;;;;;2.07;1.70;;;19.00;71.70;20.10;100925.00;;;;4953020;28;20177;-46
2022/10/17 01:54:54;;;;;;;2.10;1.90;;;19.00;71.70;20.10;100910.00;;;;4953018;28;20162;-47
2022/10/17 01:57:51;;;;;;;1.80;1.70;;;19.00;71.80;20.10;100915.00;;;;4969050;28;20212;-47
2022/10/17 02:00:21;;;;;;;2.07;1.70;;;19.00;71.80;20.00;100914.00;;;;4972337;28;20193;-47
2022/10/17 02:02:47;;;;;;;1.80;1.70;;;19.00;71.70;20.10;100910.00;;;;4968838;28;20221;-47
2022/10/17 02:05:13;;;;;;;1.80;1.70;;;18.90;71.60;20.10;100899.00;;;;4972490;28;20602;-47
2022/10/17 02:07:40;;;;;;;2.00;1.90;;;18.90;71.60;20.10;100895.00;;;;4955871;28;20201;-47
2022/10/17 02:10:11;;;;;;;1.80;1.70;;;18.90;71.70;20.10;100887.00;;;;4973149;28;20192;-47
2022/10/17 02:12:46;;;;;;;1.97;1.77;;;19.00;71.80;20.10;100881.00;;;;4956392;28;20231;-47
2022/10/17 02:15:36;;;;;;;1.90;1.80;;;18.90;71.70;20.10;100877.00;;;;4972057;28;20172;-47
2022/10/17 02:18:39;;;;;;;1.93;1.70;;;18.90;71.70;20.10;100858.00;;;;4972010;28;20192;-46
2022/10/17 02:21:17;;;;;;;2.07;1.70;;;19.00;71.80;20.10;100896.00;;;;4973328;28;20603;-46
2022/10/17 02:24:03;;;;;;;1.70;1.60;;;18.90;71.70;20.10;100908.00;;;;4956186;28;20567;-46
2022/10/17 02:26:44;;;;;;;1.80;1.70;;;18.90;71.70;20.10;100903.00;;;;4971867;28;20181;-48
2022/10/17 02:29:16;;;;;;;1.90;1.80;;;18.90;72.50;20.10;100892.00;;;;4955957;28;20193;-48
2022/10/17 02:31:50;;;;;;;2.20;1.93;;;18.90;71.70;20.10;100908.00;;;;4972424;28;20584;-48
2022/10/17 02:34:31;;;;;;;1.80;1.70;;;18.90;71.80;20.10;100892.00;;;;4972430;28;20161;-49
2022/10/17 02:37:01;;;;;;;1.87;1.77;;;18.90;71.70;20.10;100891.00;;;;4973535;28;20165;-48
2022/10/17 02:39:27;;;;;;;1.83;1.73;;;18.90;71.80;20.10;100898.00;;;;4972061;28;20294;-48
2022/10/17 02:41:54;;;;;;;1.87;1.77;;;18.90;71.80;20.10;100895.00;;;;4971860;28;20203;-49
2022/10/17 02:44:20;;;;;;;2.60;2.00;;;18.90;71.80;20.10;100894.00;;;;4971149;28;20233;-48
2022/10/17 02:46:51;;;;;;;1.73;1.60;;;18.90;71.80;20.10;100900.00;;;;4955608;28;20174;-48
2022/10/17 02:49:27;;;;;;;2.03;1.80;;;18.90;71.80;20.10;100805.00;;;;4955998;28;20205;-47
2022/10/17 02:52:11;;;;;;;1.70;1.53;;;18.90;71.80;20.10;100891.00;;;;4972132;28;20171;-48
2022/10/17 02:54:49;;;;;;;2.03;1.83;;;18.90;71.80;20.10;100902.00;;;;4956030;28;20252;-48
2022/10/17 02:57:24;;;;;;;2.10;2.00;;;18.90;71.80;20.10;100896.00;;;;4971594;28;20600;-48
2022/10/17 02:59:49;;;;;;;2.20;2.00;;;18.90;71.80;20.10;100916.00;;;;4955435;28;20300;-47
2022/10/17 03:02:15;;;;;;;2.10;1.90;;;18.90;71.70;20.10;100903.00;;;;4971325;28;20189;-48
2022/10/17 03:04:45;;;;;;;2.00;1.80;;;18.90;71.80;20.10;100902.00;;;;4972055;28;20838;-47
2022/10/17 03:07:10;;;;;;;2.03;1.93;;;18.90;71.80;20.10;100896.00;;;;4972447;28;20216;-47
2022/10/17 03:09:36;;;;;;;1.90;1.80;;;18.90;71.80;20.10;100908.00;;;;4972765;28;20173;-49
2022/10/17 03:12:02;;;;;;;2.00;1.90;;;18.90;71.80;20.10;100906.00;;;;4972115;28;20267;-46
2022/10/17 03:14:28;;;;;;;1.93;1.80;;;18.90;71.70;20.10;100901.00;;;;4972402;28;20197;-48
2022/10/17 03:16:53;;;;;;;3.70;2.00;;;18.90;71.80;20.10;100900.00;;;;4971018;28;20607;-48
2022/10/17 03:19:19;;;;;;;2.10;1.90;;;18.90;71.80;20.10;100897.00;;;;4972328;28;20209;-46
2022/10/17 03:21:45;;;;;;;3.30;2.00;;;18.90;71.80;20.10;100902.00;;;;4971919;28;20173;-47
2022/10/17 03:24:11;;;;;;;2.00;1.90;;;18.90;71.70;20.10;100906.00;;;;4971917;28;20566;-47
2022/10/17 03:26:36;;;;;;;2.30;2.10;;;18.90;71.80;20.10;100903.00;;;;4972160;28;20174;-49
2022/10/17 03:29:02;;;;;;;1.97;1.87;;;18.90;71.70;20.10;100903.00;;;;4972819;28;20188;-47
2022/10/17 03:31:28;;;;;;;1.90;1.80;;;18.90;71.80;20.10;100903.00;;;;4972151;28;20180;-47
2022/10/17 03:33:54;;;;;;;2.33;2.00;;;18.90;71.80;20.10;100902.00;;;;4971845;28;20169;-48
2022/10/17 03:36:19;;;;;;;2.97;1.83;;;18.90;71.80;20.10;100897.00;;;;4971464;28;20185;-48
2022/10/17 03:38:45;;;;;;;3.53;2.10;;;18.90;71.80;19.80;100902.00;;;;4971606;28;20197;-47
2022/10/17 03:41:11;;;;;;;2.27;1.70;;;18.90;71.80;20.10;100898.00;;;;4971821;28;20648;-47
2022/10/17 03:43:37;;;;;;;2.00;1.90;;;18.90;71.80;20.10;100912.00;;;;4971543;28;20179;-48
2022/10/17 03:46:03;;;;;;;3.13;2.00;;;18.90;71.80;20.00;100911.00;;;;4971897;28;20758;-47
2022/10/17 03:48:29;;;;;;;2.30;2.10;;;18.90;71.70;20.10;100918.00;;;;4972414;28;20275;-47
2022/10/17 03:51:05;;;;;;;2.10;1.90;;;18.90;71.80;20.10;100917.00;;;;4972545;28;20181;-47
2022/10/17 03:53:31;;;;;;;2.57;2.00;;;18.90;71.70;20.00;100924.00;;;;4972211;28;20177;-47
2022/10/17 03:56:18;;;;;;;2.23;2.00;;;18.90;71.80;20.00;100909.00;;;;4972452;28;20219;-47
2022/10/17 03:58:43;;;;;;;2.00;1.90;;;18.90;71.80;20.00;100922.00;;;;4971173;28;20211;-47
2022/10/17 04:01:11;;;;;;;3.37;1.90;;;18.90;71.80;20.00;100913.00;;;;4972244;28;20200;-47
2022/10/17 04:03:37;;;;;;;2.30;2.10;;;18.90;71.80;20.00;100928.00;;;;4971904;28;20259;-47
2022/10/17 04:06:03;;;;;;;2.77;2.00;;;18.90;72.60;20.00;100935.00;;;;4972302;28;20260;-47
2022/10/17 04:08:29;;;;;;;3.87;2.00;;;18.90;71.80;20.00;100939.00;;;;4955732;28;20333;-48
2022/10/17 04:10:59;;;;;;;3.07;2.10;;;18.90;71.80;20.00;100933.00;;;;4972394;28;20181;-48
2022/10/17 04:13:25;;;;;;;2.47;2.20;;;18.80;71.80;20.00;100936.00;;;;4970576;28;20185;-47
2022/10/17 04:16:02;;;;;;;2.80;2.03;;;18.80;71.70;20.00;100932.00;;;;4970971;28;20191;-47
2022/10/17 04:18:28;;;;;;;3.57;2.10;;;18.90;71.80;20.00;100936.00;;;;4972481;28;20287;-47
2022/10/17 04:20:53;;;;;;;4.53;1.97;;;18.80;71.70;20.00;100938.00;;;;4971992;28;20204;-48
2022/10/17 04:23:19;;;;;;;2.33;2.00;;;18.80;71.70;20.00;100935.00;;;;4971157;28;20173;-47
2022/10/17 04:25:45;;;;;;;2.10;1.90;;;18.90;71.80;20.00;100927.00;;;;4971744;28;20172;-47
2022/10/17 04:28:11;;;;;;;2.07;1.90;;;18.90;71.80;20.00;100930.00;;;;4971248;28;20197;-47
2022/10/17 04:30:37;;;;;;;2.03;1.93;;;18.90;71.80;20.00;100931.00;;;;4971756;28;20188;-47
2022/10/17 04:33:02;;;;;;;3.20;2.20;;;18.90;71.80;20.00;100938.00;;;;4971422;28;20188;-47
2022/10/17 04:35:28;;;;;;;2.67;2.27;;;19.00;71.90;20.00;100948.00;;;;4971533;28;20176;-47
2022/10/17 04:37:54;;;;;;;2.33;2.13;;;18.90;71.80;20.00;100949.00;;;;4970361;28;20201;-47
2022/10/17 04:40:19;;;;;;;2.43;2.20;;;18.90;71.80;20.00;100952.00;;;;4970501;28;20197;-47
2022/10/17 04:42:45;;;;;;;2.63;2.27;;;18.80;71.70;20.00;100954.00;;;;4971780;28;20177;-47
2022/10/17 04:45:11;;;;;;;2.20;2.10;;;18.90;71.80;20.00;100950.00;;;;4971632;28;20256;-47
2022/10/17 04:47:37;;;;;;;2.63;2.10;;;18.90;71.80;20.00;100941.00;;;;4972356;28;20193;-48
2022/10/17 04:50:03;;;;;;;2.10;2.00;;;18.80;71.70;20.00;100941.00;;;;4972362;28;20710;-47
2022/10/17 04:52:29;;;;;;;2.43;2.10;;;18.80;71.70;20.00;100948.00;;;;4972183;28;20204;-47
2022/10/17 04:54:55;;;;;;;2.03;1.90;;;18.90;71.80;20.00;100945.00;;;;4971066;28;20177;-47
2022/10/17 04:57:21;;;;;;;2.57;2.10;;;18.80;72.40;20.00;100948.00;;;;4971089;28;20459;-47
2022/10/17 04:59:46;;;;;;;4.23;2.03;;;18.90;71.80;20.00;100949.00;;;;4971122;28;20203;-48
2022/10/17 05:02:12;;;;;;;2.37;2.17;;;18.90;71.80;20.00;100954.00;;;;4970101;28;20203;-46
2022/10/17 05:04:38;;;;;;;2.40;2.20;;;18.80;71.70;20.00;100955.00;;;;4970978;28;20183;-47
2022/10/17 05:07:03;;;;;;;2.30;2.10;;;18.80;71.70;20.00;100940.00;;;;4970998;28;20177;-49
2022/10/17 05:09:29;;;;;;;2.20;2.00;;;18.80;71.70;20.00;100943.00;;;;4971239;28;20185;-47
2022/10/17 05:11:55;;;;;;;2.00;1.90;;;18.80;71.70;20.00;100952.00;;;;4970078;28;20177;-47
2022/10/17 05:14:21;;;;;;;2.53;2.10;;;18.80;71.70;20.00;100954.00;;;;4970566;28;20246;-47
2022/10/17 05:16:46;;;;;;;2.40;2.07;;;18.90;71.80;20.00;100955.00;;;;4971158;28;20177;-47
2022/10/17 05:19:12;;;;;;;2.30;2.10;;;18.80;71.70;20.00;100956.00;;;;4971194;28;20196;-47
2022/10/17 05:21:38;;;;;;;2.90;2.40;;;18.80;71.70;20.00;100953.00;;;;4971456;28;20220;-47
2022/10/17 05:24:08;;;;;;;2.40;2.20;;;18.80;71.70;20.00;100956.00;;;;4971241;28;20248;-44
2022/10/17 05:26:33;;;;;;;2.40;2.20;;;18.80;71.70;20.00;100957.00;;;;4971546;28;20177;-46
2022/10/17 05:29:01;;;;;;;2.30;2.10;;;18.80;71.70;20.00;100959.00;;;;4970866;28;20225;-48
2022/10/17 05:31:28;;;;;;;2.37;2.17;;;18.80;71.70;20.00;100959.00;;;;4971174;28;20180;-47
2022/10/17 05:33:54;;;;;;;3.77;2.10;;;18.80;71.70;20.00;100950.00;;;;4970724;28;20178;-48
2022/10/17 05:36:20;;;;;;;2.30;2.10;;;18.80;71.70;20.00;100965.00;;;;4971419;28;20212;-48
2022/10/17 05:38:50;;;;;;;2.13;2.00;;;18.80;71.70;20.00;100966.00;;;;4971806;28;20391;-48
2022/10/17 05:41:16;;;;;;;3.03;2.10;;;18.80;71.70;19.90;100968.00;;;;4975488;28;20205;-48
2022/10/17 05:43:41;;;;;;;2.23;2.03;;;18.80;71.70;20.00;100975.00;;;;4974592;28;20252;-47
2022/10/17 05:46:08;;;;;;;2.20;2.00;;;18.80;71.70;20.00;100975.00;;;;4974975;28;20179;-47
2022/10/17 05:48:33;;;;;;;2.20;2.10;;;18.80;71.70;19.90;100975.00;;;;4973509;28;20200;-47
2022/10/17 05:51:04;;;;;;;2.20;2.00;;;18.80;71.80;19.90;100974.00;;;;4974954;28;20173;-47
2022/10/17 05:53:31;;;;;;;2.47;2.27;;;18.80;71.80;19.90;100978.00;;;;4972337;28;20177;-47
2022/10/17 05:55:58;;;;;;;2.87;2.30;;;18.80;71.70;19.90;100967.00;;;;4974237;28;20181;-47
2022/10/17 05:58:24;;;;;;;2.30;2.10;;;18.80;71.80;19.90;100970.00;;;;4974342;28;20212;-47
2022/10/17 06:00:50;;;;;;;3.73;2.20;;;18.80;71.80;19.90;100970.00;;;;4974797;28;20207;-46
2022/10/17 06:03:15;;;;;;;1.93;1.83;;;18.80;71.70;19.90;100970.00;;;;4974233;28;20526;-46
2022/10/17 06:05:41;;;;;;;3.37;2.30;;;18.80;71.70;19.90;100966.00;;;;4973023;28;20662;-46
2022/10/17 06:08:07;;;;;;;5.33;2.30;;;18.80;71.70;19.90;100968.00;;;;4974063;28;20662;-47
2022/10/17 06:10:33;;;;;;;3.43;2.00;;;18.80;71.70;19.90;100969.00;;;;4974365;28;20192;-47
2022/10/17 06:12:58;;;;;;;5.67;2.23;;;18.80;71.80;19.90;100965.00;;;;4974358;28;20240;-47
2022/10/17 06:15:24;;;;;;;3.00;2.30;;;18.80;71.80;19.90;100973.00;;;;4973700;28;20185;-47
2022/10/17 06:17:50;;;;;;;3.00;2.13;;;18.80;71.80;19.90;100975.00;;;;4974183;28;20247;-47
2022/10/17 06:20:15;;;;;;;2.73;2.20;;;18.80;71.70;19.90;100978.00;;;;4974459;28;20201;-47
2022/10/17 06:22:42;;;;;;;2.90;2.20;;;18.70;72.50;19.90;100985.00;;;;4974216;28;20209;-47
2022/10/17 06:25:08;;;;;;;3.37;2.17;;;18.80;71.80;19.90;100989.00;;;;4974049;28;20613;-47
2022/10/17 06:27:33;;;;;;;4.97;2.40;;;18.80;71.80;19.90;101001.00;;;;4974485;28;20264;-47
2022/10/17 06:29:59;;;;;;;2.47;2.10;;;18.80;71.80;19.90;101011.00;;;;4973754;28;20662;-47
2022/10/17 06:32:25;;;;;;;5.30;2.50;;;18.80;71.80;19.90;101013.00;;;;4974206;28;20416;-47
2022/10/17 06:34:51;;;;;;;3.43;2.30;;;18.80;71.80;19.90;101013.00;;;;4974079;28;20237;-47
2022/10/17 06:37:16;;;;;;;3.40;2.30;;;18.80;71.80;19.90;101014.00;;;;4974426;28;20275;-47
2022/10/17 06:39:42;;;;;;;4.40;2.27;;;18.80;71.80;19.90;101013.00;;;;4973593;28;20236;-47
2022/10/17 06:42:08;;;;;;;2.50;2.20;;;18.70;71.70;19.90;101013.00;;;;4973647;28;20212;-47
2022/10/17 06:44:33;;;;;;;2.53;2.00;;;18.80;71.80;19.90;101009.00;;;;4973280;28;20169;-47
2022/10/17 06:46:59;;;;;;;2.30;2.10;;;18.70;71.70;19.90;101024.00;;;;4974169;28;20662;-47
2022/10/17 06:49:26;;;;;;;2.40;2.20;;;18.80;71.70;19.90;101024.00;;;;4973512;28;20179;-47
2022/10/17 06:51:51;;;;;;;2.40;2.20;;;18.80;71.70;19.90;101020.00;;;;4973336;28;20335;-47
2022/10/17 06:54:17;;;;;;;2.80;2.20;;;18.80;71.70;19.90;101021.00;;;;4972881;28;20702;-47
2022/10/17 06:56:43;;;;;;;2.37;2.17;;;18.80;71.70;19.90;101028.00;;;;4973308;28;20185;-47
2022/10/17 06:59:09;;;;;;;2.33;2.13;;;18.80;71.70;19.90;101036.00;;;;4973582;28;20210;-47
2022/10/17 07:01:35;;;;;;;3.63;2.33;;;18.80;71.70;19.90;101038.00;;;;4973521;28;20172;-48
2022/10/17 07:04:01;;;;;;;2.40;2.20;;;18.80;71.50;19.90;101042.00;;;;4973149;28;20180;-47
2022/10/17 07:06:27;;;;;;;2.47;2.27;;;18.80;71.70;19.90;101046.00;;;;4973275;28;20248;-47
2022/10/17 07:08:54;;;;;;;3.53;2.30;;;18.80;71.80;19.90;101050.00;;;;4972378;28;20201;-46
2022/10/17 07:11:20;;;;;;;3.27;2.20;;;18.80;71.90;19.90;101059.00;;;;4973850;28;20177;-47
2022/10/17 07:13:46;;;;;;;3.27;2.33;;;18.80;72.00;20.00;101068.00;;;;4972758;28;20184;-47
2022/10/17 07:16:12;;;;;;;2.87;2.30;;;18.80;72.00;20.00;101065.00;;;;4973321;28;20169;-47
2022/10/17 07:18:38;;;;;;;2.53;2.33;;;18.80;72.00;20.00;101070.00;;;;4973334;28;20189;-47
2022/10/17 07:21:04;;;;;;;2.70;2.50;;;18.80;72.00;20.00;101076.00;;;;4972963;28;20212;-47
2022/10/17 07:23:30;;;;;;;2.40;2.13;;;18.80;72.10;20.00;101068.00;;;;4973210;28;20495;-46
2022/10/17 07:26:00;;;;;;;3.63;2.30;;;18.80;72.10;20.00;101064.00;;;;4973122;28;20668;-47
2022/10/17 07:28:26;;;;;;;2.87;2.40;;;18.80;72.10;20.00;101068.00;;;;4972418;28;20189;-47
2022/10/17 07:30:52;;;;;;;5.00;2.30;;;18.80;72.20;20.00;101067.00;;;;4974220;28;20642;-47
2022/10/17 07:33:18;;;;;;;3.10;2.30;;;18.80;72.10;20.00;101067.00;;;;4974083;28;20188;-47
2022/10/17 07:35:43;;;;;;;3.77;2.20;;;18.80;72.20;20.00;101074.00;;;;4973066;28;20181;-47
2022/10/17 07:38:09;;;;;;;4.03;2.23;;;18.80;72.10;20.00;101060.00;;;;4972816;28;20229;-48
2022/10/17 07:40:35;;;;;;;3.80;2.40;;;18.80;72.20;20.00;101064.00;;;;4972825;28;20208;-47
2022/10/17 07:43:01;;;;;;;3.10;2.20;;;18.80;72.10;20.00;101061.00;;;;4972585;28;20181;-47
2022/10/17 07:45:26;;;;;;;3.37;2.40;;;18.80;72.10;20.00;101073.00;;;;4970858;28;20256;-47
2022/10/17 07:47:56;;;;;;;2.50;2.30;;;18.80;72.10;20.00;101070.00;;;;4972625;28;20224;-47
2022/10/17 07:50:23;;;;;;;3.03;2.33;;;18.80;72.00;20.00;101069.00;;;;4973095;28;20232;-47
2022/10/17 07:52:48;;;;;;;3.77;2.43;;;18.80;72.00;20.00;101064.00;;;;4971669;28;20188;-47
2022/10/17 07:55:14;;;;;;;2.27;2.10;;;18.80;72.00;20.00;101075.00;;;;4972501;28;20260;-47
2022/10/17 07:57:40;;;;;;;2.93;2.40;;;18.80;71.90;20.00;101075.00;;;;4972292;28;20234;-47
2022/10/17 08:00:07;;;;;;;2.57;2.37;;;18.80;71.90;20.00;101069.00;;;;4972267;28;20549;-47
2022/10/17 08:02:33;;;;;;;2.40;2.20;;;18.80;72.00;20.00;101067.00;;;;4987577;28;20200;-47
2022/10/17 08:04:59;;;;;;;3.40;2.40;;;18.80;72.10;20.10;101072.00;;;;4972358;28;20211;-47
2022/10/17 08:07:24;;;;;;;2.57;2.37;;;18.80;72.10;20.00;101069.00;;;;4971980;28;20625;-47
2022/10/17 08:09:50;;;;;;;2.67;2.47;;;18.80;72.90;20.00;101064.00;;;;4972421;28;20236;-47
2022/10/17 08:12:16;;;;;;;2.70;2.50;;;18.80;72.20;20.00;101065.00;;;;4972231;28;20196;-47
2022/10/17 08:14:42;;;;;;;2.40;2.20;;;18.90;72.40;20.00;101080.00;;;;4970035;28;20189;-48
2022/10/17 08:17:08;;;;;;;2.50;2.30;;;18.80;72.30;20.00;101080.00;;;;4970405;28;20997;-48
2022/10/17 08:19:36;;;;;;;2.40;2.20;;;18.80;72.20;20.00;101082.00;;;;4972171;28;20224;-48
2022/10/17 08:22:02;;;;;;;2.40;2.20;;;18.80;72.20;20.00;101085.00;;;;4972290;28;20201;-48
2022/10/17 08:24:27;;;;;;;2.60;2.30;;;18.80;72.30;20.00;101082.00;;;;4971879;28;20192;-46
2022/10/17 08:26:53;;;;;;;2.30;2.10;;;18.80;72.30;20.00;101087.00;;;;4971841;28;20744;-46
2022/10/17 08:29:19;;;;;;;2.33;2.13;;;18.80;72.30;20.00;101094.00;;;;4972091;28;20197;-47
2022/10/17 08:31:45;;;;;;;2.53;2.33;;;18.80;72.30;20.10;101093.00;;;;4972378;28;20173;-47
2022/10/17 08:34:10;;;;;;;3.13;2.30;;;18.80;72.20;20.10;101101.00;;;;4971638;28;20200;-49
2022/10/17 08:36:36;;;;;;;2.77;2.23;;;18.90;72.30;20.00;101101.00;;;;4972582;28;20177;-48
2022/10/17 08:39:02;;;;;;;3.53;2.37;;;18.90;72.30;20.10;101101.00;;;;4972035;28;20665;-47
2022/10/17 08:42:19;;;;;;;2.50;2.30;;;18.90;72.40;20.10;101114.00;;;;4971494;28;20200;-48
2022/10/17 08:45:05;;;;;;;2.40;2.20;;;18.90;72.50;20.00;101103.00;;;;4955969;28;20224;-48
2022/10/17 08:47:38;;;;;;;2.60;2.37;;;18.90;72.50;20.00;101092.00;;;;4971113;28;20232;-46
2022/10/17 08:50:26;;;;;;;2.50;2.30;;;18.90;72.50;20.00;101119.00;;;;4971034;28;20541;-47
2022/10/17 08:53:18;;;;;;;2.40;2.20;;;18.90;72.60;20.00;101114.00;;;;4971645;28;20418;-47
2022/10/17 08:55:46;;;;;;;2.70;2.20;;;18.90;72.70;20.00;101136.00;;;;4970677;28;20161;-47
2022/10/17 08:58:14;;;;;;;2.40;2.20;;;18.90;72.60;20.00;101130.00;;;;4970034;28;20196;-49
2022/10/17 09:00:49;;;;;;;2.47;2.27;;;18.90;72.60;20.10;101151.00;;;;4970364;28;20212;-47
2022/10/17 09:03:31;;;;;;;2.47;2.27;;;18.90;72.60;20.10;101142.00;;;;4955797;28;20320;-48
2022/10/17 09:06:38;;;;;;;2.53;2.33;;;19.00;72.60;20.10;101158.00;;;;4971459;28;20177;-46
2022/10/17 09:09:44;;;;;;;2.47;2.27;;;18.90;72.60;20.10;101146.00;;;;4937653;28;20211;-47
2022/10/17 09:12:57;;;;;;;2.30;2.10;;;19.00;72.70;20.10;101153.00;;;;4971066;28;20198;-48
2022/10/17 09:15:48;;;;;;;2.53;2.33;;;19.00;72.90;20.10;101153.00;;;;4974375;28;20165;-48
2022/10/17 09:18:41;;;;;;;2.47;2.27;;;19.00;72.90;20.10;101158.00;;;;4974346;28;20197;-48
2022/10/17 09:21:18;;;;;;;2.57;2.37;;;19.00;73.60;20.10;101141.00;;;;4961406;28;20259;-48
2022/10/17 09:23:54;;;;;;;2.50;2.30;;;19.00;72.80;20.10;101149.00;;;;4974662;28;20160;-47
2022/10/17 09:26:20;;;;;;;2.73;2.37;;;19.00;72.90;20.10;101166.00;;;;4975531;28;20548;-48
2022/10/17 09:28:51;;;;;;;2.43;2.23;;;19.10;73.00;20.10;101173.00;;;;4974358;28;20601;-48
2022/10/17 09:31:25;;;;;;;2.50;2.30;;;19.00;72.90;20.10;101172.00;;;;4958368;28;20668;-46
2022/10/17 09:33:53;;;;;;;2.77;2.30;;;19.00;73.00;20.10;101173.00;;;;4957451;28;20501;-47
2022/10/17 09:36:26;;;;;;;2.17;2.07;;;19.10;73.00;20.20;101174.00;;;;4974141;28;20174;-46
2022/10/17 09:39:00;;;;;;;6.80;2.10;;;19.10;73.10;20.20;101184.00;;;;4974800;28;20227;-49
2022/10/17 09:41:39;;;;;;;3.03;2.40;;;19.10;73.10;20.20;101173.00;;;;4959213;28;20713;-47
2022/10/17 09:44:30;;;;;;;2.53;2.33;;;19.10;73.10;20.20;101172.00;;;;4973344;28;20216;-47
2022/10/17 09:47:17;;;;;;;2.50;2.30;;;19.10;73.10;20.20;101182.00;;;;4969918;28;20286;-48
2022/10/17 09:49:45;;;;;;;2.30;2.10;;;19.10;73.10;20.20;101174.00;;;;4975214;28;20513;-47
2022/10/17 09:52:34;;;;;;;2.80;2.60;;;19.10;73.10;20.20;101176.00;;;;4973762;28;20188;-47
2022/10/17 09:55:20;;;;;;;2.93;2.27;;;19.10;73.30;20.20;101168.00;;;;4974859;28;20166;-47
2022/10/17 09:58:04;;;;;;;2.27;2.17;;;19.10;73.20;20.20;101178.00;;;;4958070;28;20210;-49
2022/10/17 10:00:44;;;;;;;3.10;2.43;;;19.10;73.40;20.20;101185.00;;;;4973254;28;20213;-49
2022/10/17 10:03:12;;;;;;;3.90;2.40;;;19.20;73.50;20.20;101190.00;;;;4973494;28;20161;-47
2022/10/17 10:05:38;;;;;;;2.50;2.30;;;19.10;73.40;20.30;101192.00;;;;4974766;28;20539;-47
2022/10/17 10:08:16;;;;;;;3.27;2.20;;;19.10;73.30;20.30;101199.00;;;;4974344;28;20195;-47
2022/10/17 10:10:43;;;;;;;3.47;2.50;;;19.20;73.50;20.30;101204.00;;;;4974008;28;20573;-47
2022/10/17 10:13:11;;;;;;;2.50;2.30;;;19.20;73.40;20.30;101202.00;;;;4975061;28;20181;-46
2022/10/17 10:15:42;;;;;;;5.23;2.20;;;19.20;73.30;20.30;101203.00;;;;4974182;28;20177;-47
2022/10/17 10:18:25;;;;;;;2.50;2.30;;;19.20;73.40;20.30;101211.00;;;;4974685;28;20201;-47
2022/10/17 10:21:19;;;;;;;2.60;2.40;;;19.20;73.50;20.30;101207.00;;;;4973876;28;20201;-47
2022/10/17 10:24:13;;;;;;;3.23;2.30;;;19.20;73.50;20.30;101208.00;;;;4972575;28;20545;-47
2022/10/17 10:26:46;;;;;;;4.00;2.40;;;19.20;73.50;20.30;101208.00;;;;4973570;28;20209;-47
2022/10/17 10:29:29;;;;;;;3.97;2.70;;;19.20;73.60;20.30;101204.00;;;;4973107;28;20199;-47
2022/10/17 10:31:57;;;;;;;3.00;2.30;;;19.20;73.60;20.40;101207.00;;;;4973844;28;20170;-47
2022/10/17 10:34:30;;;;;;;4.50;2.40;;;19.20;73.60;20.40;101218.00;;;;4972741;28;20371;-47
2022/10/17 10:37:34;;;;;;;4.03;2.37;;;19.20;73.50;20.40;101205.00;;;;4974099;28;20217;-47
2022/10/17 10:40:02;;;;;;;3.97;2.30;;;19.20;73.60;20.40;101209.00;;;;4960820;28;20701;-47
2022/10/17 10:42:29;;;;;;;3.00;2.50;;;19.20;73.60;20.40;101218.00;;;;4972632;28;20673;-47
2022/10/17 10:45:18;;;;;;;4.27;2.40;;;19.20;73.60;20.40;101218.00;;;;4973597;28;20561;-47
2022/10/17 10:48:01;;;;;;;2.63;2.30;;;19.20;73.60;20.40;101228.00;;;;4973106;28;20281;-47
2022/10/17 10:50:31;;;;;;;3.63;2.30;;;19.30;73.80;20.40;101234.00;;;;4974100;28;20244;-47
2022/10/17 10:53:30;;;;;;;2.97;2.40;;;19.30;73.90;20.40;101228.00;;;;4958417;28;20161;-47
2022/10/17 10:56:09;;;;;;;2.40;2.20;;;19.30;73.80;20.50;101244.00;;;;4972856;28;20168;-48
2022/10/17 10:58:56;;;;;;;4.27;2.23;;;19.30;73.90;20.50;101242.00;;;;4972404;28;20303;-47
2022/10/17 11:01:43;;;;;;;2.40;2.30;;;19.30;73.80;20.50;101237.00;;;;4973267;28;20233;-48
2022/10/17 11:04:38;;;;;;;2.67;2.40;;;19.30;73.80;20.50;101261.00;;;;4972471;28;20165;-48
2022/10/17 11:07:13;;;;;;;2.37;2.23;;;19.30;73.90;20.50;101251.00;;;;4972599;28;20164;-48